Kilsyth, West Virginia
Current Conditions -  °F | °C
As of 12:51 AM on Tuesday 21 Oct 2014 (Local Time) from KBKW Reporting Station
Broken Clouds Broken Clouds  
Wind Chill: 50°   Ceiling: 4300
Heat Index: 50°   Visibility: 10mi
Dew Point: 45°   Wind: 7mph
Humidity: 83%   Direction: 220°SW
Pressure: 29.96"   Gusts: NA
Location:  37.89°N, 81.18°W
Report Text: KBKW 210451Z AUTO 22006KT 10SM BKN043 BKN050 10/07 A2996 RMK AO2 SLP135 T01000072 401500011 TSNO
Loading
Personal Weather Stations






























Interactive Weather Map
Tropical Storm Tracking
New forecast layout! Learn more

10-Day Weather Forecast

Advertisements
Track Severe Weather on mobile